Beatty, Nevada Weather observations

Data are for observation ending at time listed.
 Day   Time    Ave.   Ave.  Ave.  Vector   Max.   Stn.    Total    Solar   Ave.  
  of    of     Air    Rel.  Wind   Wind    Wind   Baro.  Precip.   Rad.    Soil  
Year   Day     Temp.  Hum.  Speed  Dir.    Gust   Pres.                    Temp. 
2015   (PST)    F      %     mph   deg.    mph     mb.     in.     W/m2     F   
------------------------------------------------------------------------------
 244    4:40   61.4    25    3.0    90      6.8   897.9    0.00       0    87.0
 244    4:50   60.5    25    2.4    44      6.1   897.9    0.00       0    87.0
 244    5:00   61.0    25    3.1    79      5.2   898.0    0.00       0    86.9
 244    5:10   60.5    25    2.8    77      5.5   898.0    0.00       0    86.9
 244    5:20   60.7    25    2.4    70      4.5   898.1    0.00       2    86.8
 244    5:30   60.9    25    2.1    61      5.0   898.2    0.00       6    86.8
 244    5:40   61.4    25    2.6    71      5.1   898.4    0.00      10    86.7
 244    5:50   61.0    25    2.8    74      5.4   898.4    0.00      13    86.6
 244    6:00   60.7    26    2.3    80      4.7   898.5    0.00      18    86.6
 244    6:10   61.8    25    2.2    77      3.9   898.5    0.00      23    86.5
 244    6:20   62.9    25    1.9    73      3.8   898.6    0.00      37    86.5
 244    6:30   63.9    24    0.7    97      2.1   898.6    0.00      62    86.4
 244    6:40   65.6    23    1.2   176      3.9   898.7    0.00      32    86.3
 244    6:50   67.9    21    1.6   150      4.5   898.8    0.00      45    86.2
 244    7:00   69.1    20    1.0   157      1.8   898.9    0.00      41    86.2
 244    7:10   70.3    20    0.4   188      1.7   898.9    0.00      36    86.1
 244    7:20   71.5    20    1.1    98      2.2   898.9    0.00      62    86.1
 244    7:30   73.3    19    2.1    86      4.8   898.9    0.00      76    86.0
 244    7:40   75.3    18    1.1   109      2.4   899.0    0.00     223    85.9
 244    7:50   77.2    16    0.4   141      1.5   899.0    0.00     362    85.9
 244    8:00   78.6    15    0.8   227      2.6   899.1    0.00     389    85.8
 244    8:10   78.9    16    1.5   230      4.4   899.1    0.00     416    85.8
 244    8:20   80.0    16    2.1   173      4.8   899.1    0.00     440    85.7
 244    8:30   80.7    16    1.6   159      3.3   899.2    0.00     465    85.6
 244    8:40   82.4    17    4.2   200     10.7   899.1    0.00     489    85.5
 244    8:50   82.7    18    7.5   213     14.6   899.1    0.00     514    85.4
 244    9:00   83.7    16    7.9   210     15.3   899.1    0.00     537    85.4
 244    9:10   84.9    14    6.0   210     11.4   899.0    0.00     559    85.3
 244    9:20   86.1    14    7.1   205     13.4   899.0    0.00     579    85.2
 244    9:30   86.2    13    8.3   201     14.8   899.1    0.00     597    85.2
 244    9:40   86.7    13    8.1   181     15.1   899.1    0.00     614    85.1
 244    9:50   86.6    14    8.3   198     15.7   899.2    0.00     631    85.1
 244   10:00   86.8    13    8.7   193     15.0   899.1    0.00     647    85.1
 244   10:10   86.8    13    7.5   175     14.8   899.2    0.00     662    85.0
 244   10:20   87.0    13    8.6   185     15.1   899.2    0.00     675    85.0
 244   10:30   87.0    13    8.3   177     14.8   899.1    0.00     686    84.9
 244   10:40   88.1    12    6.8   187     14.9   899.0    0.00     700    84.9
 244   10:50   88.6    12    6.3   194     15.6   898.9    0.00     707    84.9
 244   11:00   89.0    12    6.0   178     13.2   898.7    0.00     716    84.9
 244   11:10   89.2    12    6.7   200     14.5   898.6    0.00     724    84.9
 244   11:20   89.1    12    8.0   220     14.0   898.4    0.00     729    84.9
 244   11:30   89.1    12    7.4   203     15.1   898.3    0.00     730    84.8
 244   11:40   90.0    11    7.5   206     13.7   898.2    0.00     734    84.9
 244   11:50   90.5    12    8.5   189     15.0   898.1    0.00     731    84.9
 244   12:00   90.4    11    7.5   168     16.9   898.1    0.00     733    84.9
 244   12:10   91.3    11    6.0   164     13.2   898.0    0.00     732    84.9
 244   12:20   91.4    11    8.3   200     19.7   897.9    0.00     730    85.0
 244   12:30   90.9    11    7.8   220     15.3   897.9    0.00     726    85.1
 244   12:40   91.1    10    8.5   221     18.0   897.8    0.00     722    85.2
 244   12:50   91.6    10    9.1   206     16.8   897.7    0.00     716    85.3
 244   13:00   91.1    10    8.3   221     15.1   897.7    0.00     709    85.4
 244   13:10   91.7    10    9.4   202     16.8   897.6    0.00     699    85.4
 244   13:20   92.0    10    9.7   213     17.3   897.6    0.00     688    85.5
 244   13:30   91.8    10    8.8   202     18.6   897.5    0.00     676    85.6
 244   13:40   91.4    10    8.1   220     16.4   897.4    0.00     662    85.7
 244   13:50   91.7    10    8.2   214     19.2   897.2    0.00     456    85.7
 244   14:00   91.9     9    7.1   182     17.6   897.0    0.00     317    85.8
 244   14:10   92.2     9    7.1   209     14.4   896.8    0.00      42    85.9
 244   14:20   92.8     9    8.0   201     16.1   896.7    0.00     511    86.0
 244   14:30   92.7     9    8.8   210     16.5   896.7    0.00     575    86.0
 244   14:40   92.5     9    5.6   239     13.5   896.5    0.00     557    86.1
 244   14:50   92.8     9    9.2   211     16.0   896.5    0.00     533    86.2
 244   15:00   92.3     9    9.9   219     16.5   896.4    0.00     491    86.3
 244   15:10   91.9     9    8.9   212     14.2   896.4    0.00     205    86.3
 244   15:20   91.9     9    6.3   208     10.9   896.3    0.00     157    86.4
 244   15:30   92.6     9    9.5   197     20.7   896.2    0.00      68    86.5
 244   15:40   92.4     9    9.9   202     19.1   896.2    0.00      41    86.6
 244   15:50   91.9     9    8.2   212     15.6   896.1    0.00      33    86.6
 244   16:00   91.7     9    8.4   209     16.1   896.0    0.00      35    86.7
 244   16:10   92.1     9    8.3   201     15.2   895.9    0.00      40    86.8
 244   16:20   92.0     9    9.8   213     16.5   895.9    0.00      82    86.8
 244   16:30   92.2     8    9.2   207     15.9   895.9    0.00     159    87.0
 244   16:40   92.2     8    9.5   207     18.2   895.9    0.00     194    87.0
 244   16:50   91.9     8   10.8   208     17.5   895.9    0.00     144    87.1
 244   17:00   91.9     8    9.2   210     16.1   895.9    0.00     163    87.2
 244   17:10   91.7     8    9.5   212     17.0   895.9    0.00     166    87.2
 244   17:20   91.3     8    9.3   222     15.2   895.9    0.00     140    87.3
 244   17:30   90.8     8    9.0   213     15.2   895.9    0.00     107    87.2
 244   17:40   90.4     8    8.7   220     15.5   896.0    0.00      73    87.2
 244   17:50   89.8     8    7.9   216     12.9   896.0    0.00      38    87.3
 244   18:00   88.9     8    7.1   219     12.7   896.1    0.00      12    87.3
 244   18:10   88.4     9    7.9   218     12.9   896.1    0.00       8    87.3
 244   18:20   88.1     9    7.2   218     12.3   896.1    0.00       5    87.3
 244   18:30   87.5     9    6.5   212     11.2   896.2    0.00       2    87.3
 244   18:40   87.0     9    6.6   211     11.1   896.3    0.00       0    87.4
 244   18:50   86.2     9    5.0   201      8.3   896.5    0.00       0    87.4
 244   19:00   85.0    10    3.0   200      5.0   896.6    0.00       0    87.4
 244   19:10   83.9    10    2.8   210      4.5   896.7    0.00       0    87.4
 244   19:20   83.0    10    1.9   208      3.9   896.9    0.00       0    87.4
 244   19:30   82.4    10    1.5   203      3.1   897.1    0.00       0    87.4
 244   19:40   81.4    12    0.8   339      2.2   897.2    0.00       0    87.4
 244   19:50   79.4    12    0.9   341      2.6   897.3    0.00       0    87.4
 244   20:00   79.1    12    1.4    19      2.4   897.4    0.00       0    87.4
 244   20:10   77.7    14    1.0   331      2.4   897.5    0.00       0    87.4
 244   20:20   77.6    15    0.3   251      2.3   897.5    0.00       0    87.4
 244   20:30   79.4    14    1.4   216      3.2   897.6    0.00       0    87.4
 244   20:40   78.9    14    1.6    61      2.8   897.7    0.00       0    87.4
 244   20:50   76.3    14    1.6    56      4.4   897.7    0.00       0    87.4
 244   21:00   75.4    15    1.5    62      3.7   897.8    0.00       0    87.4
 244   21:10   75.1    15    1.7    47      3.9   897.7    0.00       0    87.4
 244   21:20   74.6    15    1.1    50      2.9   897.7    0.00       0    87.4
 244   21:30   74.1    15    1.9    30      4.2   897.7    0.00       0    87.3
 244   21:40   72.2    15    1.9    35      4.1   897.7    0.00       0    87.3
 244   21:50   70.6    16    2.2    62      4.9   897.8    0.00       0    87.3
 244   22:00   70.0    17    1.9    51      4.2   897.8    0.00       0    87.3
 244   22:10   71.1    16    1.4    39      2.6   897.9    0.00       0    87.3
 244   22:20   71.4    17    1.6    30      3.1   898.0    0.00       0    87.3
 244   22:30   70.8    17    1.5    43      2.7   898.0    0.00       0    87.2
 244   22:40   70.4    18    1.9    58      3.4   898.0    0.00       0    87.2
 244   22:50   70.3    18    2.2    55      4.7   898.0    0.00       0    87.2
 244   23:00   69.5    19    2.2    62      4.2   898.1    0.00       0    87.2
 244   23:10   68.5    20    1.7    59      3.9   898.0    0.00       0    87.2
 244   23:20   68.0    20    1.4    59      3.1   898.1    0.00       0    87.2
 244   23:30   67.7    21    0.7    59      2.8   898.0    0.00       0    87.2
 244   23:40   67.4    21    0.4    66      1.3   898.1    0.00       0    87.1
 244   23:50   67.0    23    0.8   356      1.5   898.2    0.00       0    87.1
 245    0:00   67.3    22    1.1    27      2.4   898.4    0.00       0    87.1
 245    0:10   67.6    22    1.5    52      3.1   898.4    0.00       0    87.1
 245    0:20   66.8    23    2.0    62      3.8   898.4    0.00       0    87.0
 245    0:30   66.5    24    2.0    57      5.4   898.3    0.00       0    87.0
 245    0:40   66.3    24    2.6    62      4.7   898.3    0.00       0    87.0
 245    0:50   66.7    24    1.6    49      4.3   898.3    0.00       0    86.9
 245    1:00   66.7    25    1.1    23      2.6   898.3    0.00       0    86.9
 245    1:10   66.8    24    2.0    66      4.1   898.3    0.00       0    86.9
 245    1:20   66.9    24    2.4    69      5.3   898.3    0.00       0    86.8
 245    1:30   67.0    24    1.9    44      3.5   898.3    0.00       0    86.8
 245    1:40   66.9    26    1.0   327      2.2   898.3    0.00       0    86.8
 245    1:50   65.8    26    1.0    54      2.5   898.4    0.00       0    86.7
 245    2:00   66.2    26    0.8    12      1.6   898.5    0.00       0    86.7
 245    2:10   65.7    27    1.0    27      2.3   898.5    0.00       0    86.7
 245    2:20   65.5    26    1.3    27      2.8   898.5    0.00       0    86.6
 245    2:30   64.7    27    2.0    17      4.2   898.5    0.00       0    86.6
 245    2:40   64.6    26    1.7    41      3.8   898.5    0.00       0    86.6
 245    2:50   65.2    26    1.8    27      3.6   898.5    0.00       0    86.5
 245    3:00   63.9    27    1.4    53      3.1   898.5    0.00       0    86.5
 245    3:10   64.3    27    2.7    13      4.6   898.6    0.00       0    86.5
 245    3:20   64.6    27    1.8    49      3.1   898.6    0.00       0    86.4
 245    3:30   63.3    28    1.4    57      3.5   898.6    0.00       0    86.3
 245    3:40   62.7    28    2.4    59      4.5   898.6    0.00       0    86.3
 245    3:50   62.1    28    2.5    68      4.5   898.5    0.00       0    86.2
 245    4:00   61.8    28    2.5    73      5.0   898.5    0.00       0    86.2
 245    4:10   62.2    28    2.2    73      5.1   898.5    0.00       0    86.1
 245    4:20   62.7    28    0.9    72      2.7   898.6    0.00       0    86.1
 245    4:30   63.2    28    0.9    52      2.2   898.6    0.00       0    86.1

Return to Beatty, Nevada graphs page.


Western Regional Climate Center,wrcc@dri.edu